sensor_id;sensor_type;location;lat;lon;timestamp;P1;durP1;ratioP1;P2;durP2;ratioP2
22382;SDS011;11359;45.802;13.530;2022-08-20T00:00:45;0.52;;;0.40;;
22382;SDS011;11359;45.802;13.530;2022-08-20T00:03:34;0.57;;;0.35;;
22382;SDS011;11359;45.802;13.530;2022-08-20T00:06:10;0.40;;;0.40;;
22382;SDS011;11359;45.802;13.530;2022-08-20T00:08:39;0.43;;;0.38;;
22382;SDS011;11359;45.802;13.530;2022-08-20T00:11:07;0.30;;;0.30;;
22382;SDS011;11359;45.802;13.530;2022-08-20T00:13:45;0.30;;;0.30;;
22382;SDS011;11359;45.802;13.530;2022-08-20T00:16:14;0.30;;;0.30;;
22382;SDS011;11359;45.802;13.530;2022-08-20T00:18:42;0.40;;;0.30;;
22382;SDS011;11359;45.802;13.530;2022-08-20T00:21:09;0.30;;;0.30;;
22382;SDS011;11359;45.802;13.530;2022-08-20T00:23:38;0.43;;;0.30;;
22382;SDS011;11359;45.802;13.530;2022-08-20T00:26:05;0.28;;;0.28;;
22382;SDS011;11359;45.802;13.530;2022-08-20T00:28:31;0.20;;;0.20;;
22382;SDS011;11359;45.802;13.530;2022-08-20T00:30:57;0.30;;;0.30;;
22382;SDS011;11359;45.802;13.530;2022-08-20T00:33:23;0.45;;;0.30;;
22382;SDS011;11359;45.802;13.530;2022-08-20T00:35:51;0.40;;;0.30;;
22382;SDS011;11359;45.802;13.530;2022-08-20T00:38:20;0.55;;;0.30;;
22382;SDS011;11359;45.802;13.530;2022-08-20T00:40:54;0.40;;;0.40;;
22382;SDS011;11359;45.802;13.530;2022-08-20T00:46:05;0.50;;;0.22;;
22382;SDS011;11359;45.802;13.530;2022-08-20T00:48:36;0.30;;;0.30;;
22382;SDS011;11359;45.802;13.530;2022-08-20T00:51:17;0.82;;;0.35;;
22382;SDS011;11359;45.802;13.530;2022-08-20T00:53:51;0.40;;;0.30;;
22382;SDS011;11359;45.802;13.530;2022-08-20T00:56:18;0.43;;;0.40;;
22382;SDS011;11359;45.802;13.530;2022-08-20T00:58:45;0.20;;;0.20;;
22382;SDS011;11359;45.802;13.530;2022-08-20T01:01:11;0.30;;;0.30;;
22382;SDS011;11359;45.802;13.530;2022-08-20T01:03:39;1.33;;;0.35;;
22382;SDS011;11359;45.802;13.530;2022-08-20T01:06:06;0.47;;;0.30;;
22382;SDS011;11359;45.802;13.530;2022-08-20T01:08:35;0.60;;;0.30;;
22382;SDS011;11359;45.802;13.530;2022-08-20T01:11:02;0.30;;;0.30;;
22382;SDS011;11359;45.802;13.530;2022-08-20T01:13:34;0.30;;;0.30;;
22382;SDS011;11359;45.802;13.530;2022-08-20T01:16:02;2.72;;;0.40;;
22382;SDS011;11359;45.802;13.530;2022-08-20T01:18:34;0.47;;;0.30;;
22382;SDS011;11359;45.802;13.530;2022-08-20T01:21:03;0.30;;;0.30;;
22382;SDS011;11359;45.802;13.530;2022-08-20T01:23:52;0.32;;;0.30;;
22382;SDS011;11359;45.802;13.530;2022-08-20T01:26:25;0.35;;;0.30;;
22382;SDS011;11359;45.802;13.530;2022-08-20T01:29:02;0.38;;;0.38;;
22382;SDS011;11359;45.802;13.530;2022-08-20T01:31:32;0.30;;;0.30;;
22382;SDS011;11359;45.802;13.530;2022-08-20T01:34:00;0.40;;;0.40;;
22382;SDS011;11359;45.802;13.530;2022-08-20T01:36:30;0.40;;;0.40;;
22382;SDS011;11359;45.802;13.530;2022-08-20T01:39:05;0.25;;;0.20;;
22382;SDS011;11359;45.802;13.530;2022-08-20T01:41:40;0.30;;;0.30;;
22382;SDS011;11359;45.802;13.530;2022-08-20T01:44:12;1.38;;;0.40;;
22382;SDS011;11359;45.802;13.530;2022-08-20T01:46:40;0.20;;;0.20;;
22382;SDS011;11359;45.802;13.530;2022-08-20T01:49:09;0.47;;;0.30;;
22382;SDS011;11359;45.802;13.530;2022-08-20T01:52:06;0.40;;;0.30;;
22382;SDS011;11359;45.802;13.530;2022-08-20T01:54:33;0.30;;;0.30;;
22382;SDS011;11359;45.802;13.530;2022-08-20T01:57:02;1.27;;;0.30;;
22382;SDS011;11359;45.802;13.530;2022-08-20T01:59:36;0.80;;;0.40;;
22382;SDS011;11359;45.802;13.530;2022-08-20T02:02:02;0.38;;;0.38;;
22382;SDS011;11359;45.802;13.530;2022-08-20T02:04:29;0.30;;;0.30;;
22382;SDS011;11359;45.802;13.530;2022-08-20T02:06:57;0.32;;;0.30;;
22382;SDS011;11359;45.802;13.530;2022-08-20T02:09:27;0.28;;;0.28;;
22382;SDS011;11359;45.802;13.530;2022-08-20T02:11:54;0.30;;;0.20;;
22382;SDS011;11359;45.802;13.530;2022-08-20T02:14:21;0.40;;;0.32;;
22382;SDS011;11359;45.802;13.530;2022-08-20T02:16:48;0.70;;;0.32;;
22382;SDS011;11359;45.802;13.530;2022-08-20T02:19:18;0.30;;;0.30;;
22382;SDS011;11359;45.802;13.530;2022-08-20T02:21:48;0.30;;;0.30;;
22382;SDS011;11359;45.802;13.530;2022-08-20T02:24:17;1.65;;;0.35;;
22382;SDS011;11359;45.802;13.530;2022-08-20T02:26:44;0.40;;;0.40;;
22382;SDS011;11359;45.802;13.530;2022-08-20T02:29:10;0.40;;;0.40;;
22382;SDS011;11359;45.802;13.530;2022-08-20T02:31:37;0.43;;;0.35;;
22382;SDS011;11359;45.802;13.530;2022-08-20T02:34:04;0.70;;;0.40;;
22382;SDS011;11359;45.802;13.530;2022-08-20T02:36:33;0.57;;;0.40;;
22382;SDS011;11359;45.802;13.530;2022-08-20T02:39:02;0.30;;;0.28;;
22382;SDS011;11359;45.802;13.530;2022-08-20T02:41:30;0.60;;;0.43;;
22382;SDS011;11359;45.802;13.530;2022-08-20T02:43:56;0.90;;;0.50;;
22382;SDS011;11359;45.802;13.530;2022-08-20T02:46:22;2.33;;;0.40;;
22382;SDS011;11359;45.802;13.530;2022-08-20T02:48:48;0.60;;;0.40;;
22382;SDS011;11359;45.802;13.530;2022-08-20T02:51:13;0.47;;;0.45;;
22382;SDS011;11359;45.802;13.530;2022-08-20T02:53:39;1.17;;;0.70;;
22382;SDS011;11359;45.802;13.530;2022-08-20T02:56:06;0.68;;;0.32;;
22382;SDS011;11359;45.802;13.530;2022-08-20T02:58:34;0.38;;;0.38;;
22382;SDS011;11359;45.802;13.530;2022-08-20T03:01:01;0.50;;;0.40;;
22382;SDS011;11359;45.802;13.530;2022-08-20T03:03:30;0.47;;;0.30;;
22382;SDS011;11359;45.802;13.530;2022-08-20T03:05:57;0.40;;;0.40;;
22382;SDS011;11359;45.802;13.530;2022-08-20T03:08:24;0.30;;;0.30;;
22382;SDS011;11359;45.802;13.530;2022-08-20T03:10:52;0.75;;;0.40;;
22382;SDS011;11359;45.802;13.530;2022-08-20T03:13:19;0.50;;;0.50;;
22382;SDS011;11359;45.802;13.530;2022-08-20T03:15:47;0.68;;;0.40;;
22382;SDS011;11359;45.802;13.530;2022-08-20T03:18:16;0.77;;;0.40;;
22382;SDS011;11359;45.802;13.530;2022-08-20T03:20:44;0.38;;;0.38;;
22382;SDS011;11359;45.802;13.530;2022-08-20T03:23:10;1.33;;;0.50;;
22382;SDS011;11359;45.802;13.530;2022-08-20T03:25:36;0.30;;;0.30;;
22382;SDS011;11359;45.802;13.530;2022-08-20T03:28:02;0.80;;;0.40;;
22382;SDS011;11359;45.802;13.530;2022-08-20T03:30:28;0.40;;;0.30;;
22382;SDS011;11359;45.802;13.530;2022-08-20T03:32:54;0.40;;;0.40;;
22382;SDS011;11359;45.802;13.530;2022-08-20T03:35:21;0.55;;;0.50;;
22382;SDS011;11359;45.802;13.530;2022-08-20T03:37:48;0.50;;;0.47;;
22382;SDS011;11359;45.802;13.530;2022-08-20T03:40:16;0.40;;;0.32;;
22382;SDS011;11359;45.802;13.530;2022-08-20T03:42:44;0.57;;;0.40;;
22382;SDS011;11359;45.802;13.530;2022-08-20T03:45:11;0.40;;;0.40;;
22382;SDS011;11359;45.802;13.530;2022-08-20T03:47:38;0.63;;;0.40;;
22382;SDS011;11359;45.802;13.530;2022-08-20T03:50:06;0.40;;;0.30;;
22382;SDS011;11359;45.802;13.530;2022-08-20T03:52:33;0.60;;;0.40;;
22382;SDS011;11359;45.802;13.530;2022-08-20T03:54:58;0.60;;;0.38;;
22382;SDS011;11359;45.802;13.530;2022-08-20T03:57:24;0.82;;;0.50;;
22382;SDS011;11359;45.802;13.530;2022-08-20T03:59:51;1.05;;;0.40;;
22382;SDS011;11359;45.802;13.530;2022-08-20T04:02:17;0.50;;;0.40;;
22382;SDS011;11359;45.802;13.530;2022-08-20T04:04:43;0.43;;;0.40;;
22382;SDS011;11359;45.802;13.530;2022-08-20T04:07:13;0.60;;;0.40;;
22382;SDS011;11359;45.802;13.530;2022-08-20T04:09:49;0.73;;;0.40;;
22382;SDS011;11359;45.802;13.530;2022-08-20T04:12:19;0.68;;;0.40;;
22382;SDS011;11359;45.802;13.530;2022-08-20T04:14:46;0.55;;;0.40;;
22382;SDS011;11359;45.802;13.530;2022-08-20T04:17:11;0.50;;;0.40;;
22382;SDS011;11359;45.802;13.530;2022-08-20T04:19:38;0.30;;;0.30;;
22382;SDS011;11359;45.802;13.530;2022-08-20T04:22:05;0.60;;;0.40;;
22382;SDS011;11359;45.802;13.530;2022-08-20T04:24:32;0.38;;;0.38;;
22382;SDS011;11359;45.802;13.530;2022-08-20T04:26:58;0.60;;;0.50;;
22382;SDS011;11359;45.802;13.530;2022-08-20T04:29:29;0.45;;;0.45;;
22382;SDS011;11359;45.802;13.530;2022-08-20T04:31:57;0.55;;;0.40;;
22382;SDS011;11359;45.802;13.530;2022-08-20T04:34:24;0.50;;;0.40;;
22382;SDS011;11359;45.802;13.530;2022-08-20T04:36:50;0.30;;;0.30;;
22382;SDS011;11359;45.802;13.530;2022-08-20T04:39:16;0.40;;;0.40;;
22382;SDS011;11359;45.802;13.530;2022-08-20T04:41:42;1.83;;;0.40;;
22382;SDS011;11359;45.802;13.530;2022-08-20T04:44:08;0.40;;;0.40;;
22382;SDS011;11359;45.802;13.530;2022-08-20T04:46:35;0.50;;;0.50;;
22382;SDS011;11359;45.802;13.530;2022-08-20T04:49:02;0.80;;;0.40;;
22382;SDS011;11359;45.802;13.530;2022-08-20T04:51:29;0.40;;;0.40;;
22382;SDS011;11359;45.802;13.530;2022-08-20T04:53:55;0.95;;;0.50;;
22382;SDS011;11359;45.802;13.530;2022-08-20T04:56:23;0.52;;;0.40;;
22382;SDS011;11359;45.802;13.530;2022-08-20T04:58:51;0.50;;;0.35;;
22382;SDS011;11359;45.802;13.530;2022-08-20T05:01:19;0.50;;;0.50;;
22382;SDS011;11359;45.802;13.530;2022-08-20T05:03:45;0.55;;;0.55;;
22382;SDS011;11359;45.802;13.530;2022-08-20T05:06:11;2.33;;;0.40;;
22382;SDS011;11359;45.802;13.530;2022-08-20T05:08:38;0.32;;;0.30;;
22382;SDS011;11359;45.802;13.530;2022-08-20T05:11:04;0.43;;;0.30;;
22382;SDS011;11359;45.802;13.530;2022-08-20T05:13:31;0.73;;;0.50;;
22382;SDS011;11359;45.802;13.530;2022-08-20T05:15:56;0.50;;;0.40;;
22382;SDS011;11359;45.802;13.530;2022-08-20T05:18:25;0.40;;;0.35;;
22382;SDS011;11359;45.802;13.530;2022-08-20T05:20:52;0.82;;;0.30;;
22382;SDS011;11359;45.802;13.530;2022-08-20T05:23:18;0.60;;;0.40;;
22382;SDS011;11359;45.802;13.530;2022-08-20T05:25:45;0.35;;;0.30;;
22382;SDS011;11359;45.802;13.530;2022-08-20T05:28:23;0.65;;;0.35;;
22382;SDS011;11359;45.802;13.530;2022-08-20T05:30:51;0.30;;;0.30;;
22382;SDS011;11359;45.802;13.530;2022-08-20T05:33:19;0.60;;;0.30;;
22382;SDS011;11359;45.802;13.530;2022-08-20T05:35:46;1.17;;;0.40;;
22382;SDS011;11359;45.802;13.530;2022-08-20T05:38:16;0.30;;;0.30;;
22382;SDS011;11359;45.802;13.530;2022-08-20T05:40:44;0.55;;;0.40;;
22382;SDS011;11359;45.802;13.530;2022-08-20T05:43:10;0.40;;;0.40;;
22382;SDS011;11359;45.802;13.530;2022-08-20T05:45:37;0.30;;;0.30;;
22382;SDS011;11359;45.802;13.530;2022-08-20T05:48:08;0.55;;;0.40;;
22382;SDS011;11359;45.802;13.530;2022-08-20T05:50:39;0.40;;;0.40;;
22382;SDS011;11359;45.802;13.530;2022-08-20T05:53:06;0.63;;;0.40;;
22382;SDS011;11359;45.802;13.530;2022-08-20T05:55:32;0.40;;;0.40;;
22382;SDS011;11359;45.802;13.530;2022-08-20T05:58:02;0.68;;;0.43;;
22382;SDS011;11359;45.802;13.530;2022-08-20T06:00:29;0.40;;;0.40;;
22382;SDS011;11359;45.802;13.530;2022-08-20T06:02:56;0.30;;;0.30;;
22382;SDS011;11359;45.802;13.530;2022-08-20T06:05:40;0.40;;;0.40;;
22382;SDS011;11359;45.802;13.530;2022-08-20T06:08:07;0.40;;;0.38;;
22382;SDS011;11359;45.802;13.530;2022-08-20T06:10:34;0.45;;;0.30;;
22382;SDS011;11359;45.802;13.530;2022-08-20T06:13:01;0.25;;;0.25;;
22382;SDS011;11359;45.802;13.530;2022-08-20T06:15:28;0.52;;;0.30;;
22382;SDS011;11359;45.802;13.530;2022-08-20T06:17:54;0.38;;;0.30;;
22382;SDS011;11359;45.802;13.530;2022-08-20T06:20:20;0.30;;;0.30;;
22382;SDS011;11359;45.802;13.530;2022-08-20T06:22:47;0.30;;;0.30;;
22382;SDS011;11359;45.802;13.530;2022-08-20T06:25:12;0.20;;;0.20;;
22382;SDS011;11359;45.802;13.530;2022-08-20T06:27:39;0.20;;;0.20;;
22382;SDS011;11359;45.802;13.530;2022-08-20T06:30:07;0.52;;;0.30;;
22382;SDS011;11359;45.802;13.530;2022-08-20T06:32:34;1.27;;;0.43;;
22382;SDS011;11359;45.802;13.530;2022-08-20T06:35:00;1.17;;;0.70;;
22382;SDS011;11359;45.802;13.530;2022-08-20T06:37:27;0.77;;;0.68;;
22382;SDS011;11359;45.802;13.530;2022-08-20T06:39:54;1.42;;;0.50;;
22382;SDS011;11359;45.802;13.530;2022-08-20T06:42:24;0.90;;;0.60;;
22382;SDS011;11359;45.802;13.530;2022-08-20T06:44:50;0.50;;;0.50;;
22382;SDS011;11359;45.802;13.530;2022-08-20T06:47:17;0.57;;;0.50;;
22382;SDS011;11359;45.802;13.530;2022-08-20T06:49:44;0.85;;;0.40;;
22382;SDS011;11359;45.802;13.530;2022-08-20T06:52:11;0.82;;;0.60;;
22382;SDS011;11359;45.802;13.530;2022-08-20T06:54:39;1.30;;;0.70;;
22382;SDS011;11359;45.802;13.530;2022-08-20T06:57:05;1.55;;;0.90;;
22382;SDS011;11359;45.802;13.530;2022-08-20T06:59:31;1.67;;;0.95;;
22382;SDS011;11359;45.802;13.530;2022-08-20T07:01:57;1.90;;;0.93;;
22382;SDS011;11359;45.802;13.530;2022-08-20T07:04:23;1.65;;;1.30;;
22382;SDS011;11359;45.802;13.530;2022-08-20T07:06:50;1.27;;;0.80;;
22382;SDS011;11359;45.802;13.530;2022-08-20T07:09:21;1.88;;;1.25;;
22382;SDS011;11359;45.802;13.530;2022-08-20T07:11:48;1.95;;;1.08;;
22382;SDS011;11359;45.802;13.530;2022-08-20T07:14:14;2.42;;;1.35;;
22382;SDS011;11359;45.802;13.530;2022-08-20T07:16:40;1.45;;;1.05;;
22382;SDS011;11359;45.802;13.530;2022-08-20T07:19:06;1.40;;;1.00;;
22382;SDS011;11359;45.802;13.530;2022-08-20T07:21:33;1.48;;;0.75;;
22382;SDS011;11359;45.802;13.530;2022-08-20T07:23:59;3.63;;;1.17;;
22382;SDS011;11359;45.802;13.530;2022-08-20T07:26:25;3.50;;;1.00;;
22382;SDS011;11359;45.802;13.530;2022-08-20T07:28:51;2.97;;;1.27;;
22382;SDS011;11359;45.802;13.530;2022-08-20T07:31:18;2.50;;;1.20;;
22382;SDS011;11359;45.802;13.530;2022-08-20T07:34:03;1.33;;;1.20;;
22382;SDS011;11359;45.802;13.530;2022-08-20T07:36:29;2.05;;;1.00;;
22382;SDS011;11359;45.802;13.530;2022-08-20T07:38:55;1.10;;;0.90;;
22382;SDS011;11359;45.802;13.530;2022-08-20T07:41:21;1.73;;;1.13;;
22382;SDS011;11359;45.802;13.530;2022-08-20T07:43:47;1.98;;;0.98;;
22382;SDS011;11359;45.802;13.530;2022-08-20T07:46:15;3.83;;;1.20;;
22382;SDS011;11359;45.802;13.530;2022-08-20T07:48:43;2.08;;;0.90;;
22382;SDS011;11359;45.802;13.530;2022-08-20T07:51:11;1.27;;;0.93;;
22382;SDS011;11359;45.802;13.530;2022-08-20T07:53:38;1.55;;;0.90;;
22382;SDS011;11359;45.802;13.530;2022-08-20T07:56:10;2.45;;;1.10;;
22382;SDS011;11359;45.802;13.530;2022-08-20T07:58:42;1.10;;;0.80;;
22382;SDS011;11359;45.802;13.530;2022-08-20T08:01:15;1.25;;;0.80;;
22382;SDS011;11359;45.802;13.530;2022-08-20T08:03:44;2.92;;;0.80;;
22382;SDS011;11359;45.802;13.530;2022-08-20T08:06:10;0.75;;;0.55;;
22382;SDS011;11359;45.802;13.530;2022-08-20T08:08:37;0.77;;;0.57;;
22382;SDS011;11359;45.802;13.530;2022-08-20T08:11:04;0.93;;;0.50;;
22382;SDS011;11359;45.802;13.530;2022-08-20T08:13:35;0.73;;;0.60;;
22382;SDS011;11359;45.802;13.530;2022-08-20T08:16:04;1.73;;;0.95;;
22382;SDS011;11359;45.802;13.530;2022-08-20T08:18:36;1.40;;;0.80;;
22382;SDS011;11359;45.802;13.530;2022-08-20T08:21:08;1.88;;;0.90;;
22382;SDS011;11359;45.802;13.530;2022-08-20T08:23:37;1.42;;;0.85;;
22382;SDS011;11359;45.802;13.530;2022-08-20T08:26:04;2.47;;;1.10;;
22382;SDS011;11359;45.802;13.530;2022-08-20T08:28:30;4.05;;;1.65;;
22382;SDS011;11359;45.802;13.530;2022-08-20T08:30:56;2.35;;;1.33;;
22382;SDS011;11359;45.802;13.530;2022-08-20T08:33:24;3.72;;;1.50;;
22382;SDS011;11359;45.802;13.530;2022-08-20T08:35:52;3.92;;;1.48;;
22382;SDS011;11359;45.802;13.530;2022-08-20T08:38:22;3.80;;;2.00;;
22382;SDS011;11359;45.802;13.530;2022-08-20T08:40:50;2.40;;;1.20;;
22382;SDS011;11359;45.802;13.530;2022-08-20T08:43:18;3.80;;;1.58;;
22382;SDS011;11359;45.802;13.530;2022-08-20T08:45:59;3.13;;;1.30;;
22382;SDS011;11359;45.802;13.530;2022-08-20T08:48:30;2.80;;;1.20;;
22382;SDS011;11359;45.802;13.530;2022-08-20T08:50:58;2.63;;;1.10;;
22382;SDS011;11359;45.802;13.530;2022-08-20T08:53:30;2.35;;;1.20;;
22382;SDS011;11359;45.802;13.530;2022-08-20T08:56:00;3.53;;;1.50;;
22382;SDS011;11359;45.802;13.530;2022-08-20T08:58:26;4.35;;;1.80;;
22382;SDS011;11359;45.802;13.530;2022-08-20T09:00:52;3.33;;;1.70;;
22382;SDS011;11359;45.802;13.530;2022-08-20T09:03:23;2.22;;;1.33;;
22382;SDS011;11359;45.802;13.530;2022-08-20T09:05:55;3.20;;;1.50;;
22382;SDS011;11359;45.802;13.530;2022-08-20T09:08:29;2.33;;;1.33;;
22382;SDS011;11359;45.802;13.530;2022-08-20T09:11:02;3.33;;;1.80;;
22382;SDS011;11359;45.802;13.530;2022-08-20T09:13:29;2.10;;;1.42;;
22382;SDS011;11359;45.802;13.530;2022-08-20T09:15:54;2.45;;;1.30;;
22382;SDS011;11359;45.802;13.530;2022-08-20T09:18:20;3.60;;;1.70;;
22382;SDS011;11359;45.802;13.530;2022-08-20T09:20:46;2.75;;;1.60;;
22382;SDS011;11359;45.802;13.530;2022-08-20T09:23:12;3.65;;;1.63;;
22382;SDS011;11359;45.802;13.530;2022-08-20T09:25:37;3.45;;;1.40;;
22382;SDS011;11359;45.802;13.530;2022-08-20T09:28:03;3.05;;;1.10;;
22382;SDS011;11359;45.802;13.530;2022-08-20T09:30:29;2.75;;;1.48;;
22382;SDS011;11359;45.802;13.530;2022-08-20T09:32:57;3.60;;;1.33;;
22382;SDS011;11359;45.802;13.530;2022-08-20T09:35:23;3.58;;;1.45;;
22382;SDS011;11359;45.802;13.530;2022-08-20T09:37:49;3.88;;;1.30;;
22382;SDS011;11359;45.802;13.530;2022-08-20T09:40:16;2.78;;;1.40;;
22382;SDS011;11359;45.802;13.530;2022-08-20T09:42:43;1.90;;;1.20;;
22382;SDS011;11359;45.802;13.530;2022-08-20T09:45:09;2.47;;;1.08;;
22382;SDS011;11359;45.802;13.530;2022-08-20T09:47:35;2.95;;;1.23;;
22382;SDS011;11359;45.802;13.530;2022-08-20T09:50:02;2.35;;;1.33;;
22382;SDS011;11359;45.802;13.530;2022-08-20T09:52:30;3.05;;;1.42;;
22382;SDS011;11359;45.802;13.530;2022-08-20T09:57:52;2.93;;;1.60;;
22382;SDS011;11359;45.802;13.530;2022-08-20T10:00:18;3.40;;;1.35;;
22382;SDS011;11359;45.802;13.530;2022-08-20T10:02:44;3.50;;;1.30;;
22382;SDS011;11359;45.802;13.530;2022-08-20T10:05:10;1.73;;;1.25;;
22382;SDS011;11359;45.802;13.530;2022-08-20T10:07:37;2.97;;;1.42;;
22382;SDS011;11359;45.802;13.530;2022-08-20T10:10:04;2.67;;;1.50;;
22382;SDS011;11359;45.802;13.530;2022-08-20T10:12:31;2.38;;;1.33;;
22382;SDS011;11359;45.802;13.530;2022-08-20T10:14:56;4.63;;;1.52;;
22382;SDS011;11359;45.802;13.530;2022-08-20T10:17:22;4.25;;;1.88;;
22382;SDS011;11359;45.802;13.530;2022-08-20T10:19:48;3.55;;;1.33;;
22382;SDS011;11359;45.802;13.530;2022-08-20T10:22:13;3.33;;;1.40;;
22382;SDS011;11359;45.802;13.530;2022-08-20T10:24:39;2.53;;;1.30;;
22382;SDS011;11359;45.802;13.530;2022-08-20T10:27:05;3.28;;;1.02;;
22382;SDS011;11359;45.802;13.530;2022-08-20T10:29:31;2.50;;;1.15;;
22382;SDS011;11359;45.802;13.530;2022-08-20T10:32:04;2.15;;;1.15;;
22382;SDS011;11359;45.802;13.530;2022-08-20T10:34:35;3.55;;;1.40;;
22382;SDS011;11359;45.802;13.530;2022-08-20T10:37:02;2.67;;;1.30;;
22382;SDS011;11359;45.802;13.530;2022-08-20T10:39:28;2.00;;;0.90;;
22382;SDS011;11359;45.802;13.530;2022-08-20T10:41:53;3.08;;;1.30;;
22382;SDS011;11359;45.802;13.530;2022-08-20T10:44:19;3.03;;;1.25;;
22382;SDS011;11359;45.802;13.530;2022-08-20T10:46:45;3.55;;;1.38;;
22382;SDS011;11359;45.802;13.530;2022-08-20T10:49:10;2.78;;;1.15;;
22382;SDS011;11359;45.802;13.530;2022-08-20T10:51:36;3.45;;;1.27;;
22382;SDS011;11359;45.802;13.530;2022-08-20T10:54:02;3.17;;;1.10;;
22382;SDS011;11359;45.802;13.530;2022-08-20T10:56:28;2.35;;;0.80;;
22382;SDS011;11359;45.802;13.530;2022-08-20T10:58:54;3.08;;;1.08;;
22382;SDS011;11359;45.802;13.530;2022-08-20T11:01:19;2.75;;;1.20;;
22382;SDS011;11359;45.802;13.530;2022-08-20T11:03:45;1.92;;;1.08;;
22382;SDS011;11359;45.802;13.530;2022-08-20T11:06:11;3.25;;;1.13;;
22382;SDS011;11359;45.802;13.530;2022-08-20T11:08:37;2.10;;;1.00;;
22382;SDS011;11359;45.802;13.530;2022-08-20T11:11:05;4.28;;;1.33;;
22382;SDS011;11359;45.802;13.530;2022-08-20T11:13:32;1.58;;;1.13;;
22382;SDS011;11359;45.802;13.530;2022-08-20T11:15:59;1.90;;;0.77;;
22382;SDS011;11359;45.802;13.530;2022-08-20T11:18:26;1.13;;;0.80;;
22382;SDS011;11359;45.802;13.530;2022-08-20T11:20:52;1.25;;;0.80;;
22382;SDS011;11359;45.802;13.530;2022-08-20T11:23:19;1.42;;;0.80;;
22382;SDS011;11359;45.802;13.530;2022-08-20T11:25:44;2.58;;;0.95;;
22382;SDS011;11359;45.802;13.530;2022-08-20T11:28:10;1.80;;;0.70;;
22382;SDS011;11359;45.802;13.530;2022-08-20T11:30:37;3.10;;;1.00;;
22382;SDS011;11359;45.802;13.530;2022-08-20T11:33:03;2.05;;;1.05;;
22382;SDS011;11359;45.802;13.530;2022-08-20T11:35:30;1.77;;;0.70;;
22382;SDS011;11359;45.802;13.530;2022-08-20T11:37:58;1.30;;;0.60;;
22382;SDS011;11359;45.802;13.530;2022-08-20T11:40:25;2.80;;;0.50;;
22382;SDS011;11359;45.802;13.530;2022-08-20T11:42:51;0.93;;;0.50;;
22382;SDS011;11359;45.802;13.530;2022-08-20T11:45:17;0.43;;;0.40;;
22382;SDS011;11359;45.802;13.530;2022-08-20T11:47:43;0.95;;;0.47;;
22382;SDS011;11359;45.802;13.530;2022-08-20T11:50:13;0.77;;;0.45;;
22382;SDS011;11359;45.802;13.530;2022-08-20T11:52:40;0.47;;;0.40;;
22382;SDS011;11359;45.802;13.530;2022-08-20T11:55:07;0.77;;;0.50;;
22382;SDS011;11359;45.802;13.530;2022-08-20T11:57:35;0.55;;;0.47;;
22382;SDS011;11359;45.802;13.530;2022-08-20T12:00:06;0.93;;;0.40;;
22382;SDS011;11359;45.802;13.530;2022-08-20T12:02:37;0.63;;;0.47;;
22382;SDS011;11359;45.802;13.530;2022-08-20T12:05:03;0.63;;;0.40;;
22382;SDS011;11359;45.802;13.530;2022-08-20T12:07:30;0.40;;;0.30;;
22382;SDS011;11359;45.802;13.530;2022-08-20T12:09:56;0.93;;;0.40;;
22382;SDS011;11359;45.802;13.530;2022-08-20T12:12:22;0.20;;;0.20;;
22382;SDS011;11359;45.802;13.530;2022-08-20T12:14:49;0.35;;;0.30;;
22382;SDS011;11359;45.802;13.530;2022-08-20T12:17:18;0.40;;;0.40;;
22382;SDS011;11359;45.802;13.530;2022-08-20T12:19:48;0.43;;;0.30;;
22382;SDS011;11359;45.802;13.530;2022-08-20T12:22:15;0.20;;;0.20;;
22382;SDS011;11359;45.802;13.530;2022-08-20T12:24:41;0.25;;;0.25;;
22382;SDS011;11359;45.802;13.530;2022-08-20T12:27:11;0.20;;;0.20;;
22382;SDS011;11359;45.802;13.530;2022-08-20T12:29:43;0.20;;;0.20;;
22382;SDS011;11359;45.802;13.530;2022-08-20T12:32:10;0.20;;;0.20;;
22382;SDS011;11359;45.802;13.530;2022-08-20T12:34:38;0.32;;;0.20;;
22382;SDS011;11359;45.802;13.530;2022-08-20T12:37:10;0.63;;;0.25;;
22382;SDS011;11359;45.802;13.530;2022-08-20T12:39:38;0.20;;;0.20;;
22382;SDS011;11359;45.802;13.530;2022-08-20T12:42:04;0.30;;;0.30;;
22382;SDS011;11359;45.802;13.530;2022-08-20T12:44:33;0.30;;;0.30;;
22382;SDS011;11359;45.802;13.530;2022-08-20T12:49:38;0.28;;;0.22;;
22382;SDS011;11359;45.802;13.530;2022-08-20T12:52:05;0.32;;;0.30;;
22382;SDS011;11359;45.802;13.530;2022-08-20T12:54:32;0.43;;;0.20;;
22382;SDS011;11359;45.802;13.530;2022-08-20T12:56:57;0.28;;;0.25;;
22382;SDS011;11359;45.802;13.530;2022-08-20T12:59:23;0.20;;;0.20;;
22382;SDS011;11359;45.802;13.530;2022-08-20T13:01:51;0.20;;;0.20;;
22382;SDS011;11359;45.802;13.530;2022-08-20T13:04:17;0.20;;;0.20;;
22382;SDS011;11359;45.802;13.530;2022-08-20T13:06:43;0.38;;;0.28;;
22382;SDS011;11359;45.802;13.530;2022-08-20T13:09:09;0.22;;;0.22;;
22382;SDS011;11359;45.802;13.530;2022-08-20T13:11:35;0.20;;;0.20;;
22382;SDS011;11359;45.802;13.530;2022-08-20T13:14:01;0.20;;;0.20;;
22382;SDS011;11359;45.802;13.530;2022-08-20T13:16:26;0.20;;;0.20;;
22382;SDS011;11359;45.802;13.530;2022-08-20T13:18:52;0.20;;;0.20;;
22382;SDS011;11359;45.802;13.530;2022-08-20T13:21:18;0.20;;;0.20;;
22382;SDS011;11359;45.802;13.530;2022-08-20T13:23:43;0.20;;;0.20;;
22382;SDS011;11359;45.802;13.530;2022-08-20T13:26:09;0.10;;;0.10;;
22382;SDS011;11359;45.802;13.530;2022-08-20T13:28:35;0.20;;;0.20;;
22382;SDS011;11359;45.802;13.530;2022-08-20T13:31:01;0.10;;;0.10;;
22382;SDS011;11359;45.802;13.530;2022-08-20T13:33:27;0.55;;;0.20;;
22382;SDS011;11359;45.802;13.530;2022-08-20T13:35:53;0.20;;;0.20;;
22382;SDS011;11359;45.802;13.530;2022-08-20T13:38:20;0.20;;;0.20;;
22382;SDS011;11359;45.802;13.530;2022-08-20T13:40:46;0.20;;;0.20;;
22382;SDS011;11359;45.802;13.530;2022-08-20T13:43:12;0.10;;;0.10;;
22382;SDS011;11359;45.802;13.530;2022-08-20T13:45:38;0.17;;;0.17;;
22382;SDS011;11359;45.802;13.530;2022-08-20T13:48:04;0.10;;;0.10;;
22382;SDS011;11359;45.802;13.530;2022-08-20T13:50:31;0.20;;;0.20;;
22382;SDS011;11359;45.802;13.530;2022-08-20T13:52:57;0.10;;;0.10;;
22382;SDS011;11359;45.802;13.530;2022-08-20T13:55:23;0.20;;;0.13;;
22382;SDS011;11359;45.802;13.530;2022-08-20T13:57:51;0.10;;;0.10;;
22382;SDS011;11359;45.802;13.530;2022-08-20T14:00:22;0.20;;;0.20;;
22382;SDS011;11359;45.802;13.530;2022-08-20T14:02:53;0.10;;;0.10;;
22382;SDS011;11359;45.802;13.530;2022-08-20T14:05:19;0.10;;;0.10;;
22382;SDS011;11359;45.802;13.530;2022-08-20T14:07:46;0.20;;;0.20;;
22382;SDS011;11359;45.802;13.530;2022-08-20T14:10:18;0.32;;;0.20;;
22382;SDS011;11359;45.802;13.530;2022-08-20T14:12:48;0.20;;;0.20;;
22382;SDS011;11359;45.802;13.530;2022-08-20T14:15:14;0.20;;;0.20;;
22382;SDS011;11359;45.802;13.530;2022-08-20T14:17:41;0.28;;;0.13;;
22382;SDS011;11359;45.802;13.530;2022-08-20T14:20:14;0.17;;;0.17;;
22382;SDS011;11359;45.802;13.530;2022-08-20T14:22:41;0.38;;;0.20;;
22382;SDS011;11359;45.802;13.530;2022-08-20T14:25:08;0.10;;;0.10;;
22382;SDS011;11359;45.802;13.530;2022-08-20T14:27:36;0.32;;;0.32;;
22382;SDS011;11359;45.802;13.530;2022-08-20T14:30:03;0.20;;;0.20;;
22382;SDS011;11359;45.802;13.530;2022-08-20T14:32:32;0.20;;;0.20;;
22382;SDS011;11359;45.802;13.530;2022-08-20T14:34:58;0.20;;;0.20;;
22382;SDS011;11359;45.802;13.530;2022-08-20T14:37:31;0.20;;;0.20;;
22382;SDS011;11359;45.802;13.530;2022-08-20T14:40:03;0.30;;;0.20;;
22382;SDS011;11359;45.802;13.530;2022-08-20T14:42:33;0.20;;;0.20;;
22382;SDS011;11359;45.802;13.530;2022-08-20T14:45:00;0.20;;;0.20;;